createdAt,value
2017-04-04T00:51:32.328Z,19.12
2017-04-04T00:52:58.259Z,20.85
2017-04-04T00:53:57.205Z,21.30
2017-04-04T00:54:56.066Z,21.67
2017-04-04T00:55:54.974Z,21.67
2017-04-04T00:56:54.272Z,21.35
2017-04-04T00:57:53.219Z,23.40
2017-04-04T00:58:52.088Z,26.20
2017-04-04T00:59:51.033Z,21.65
2017-04-04T01:00:49.899Z,23.45
2017-04-04T01:01:48.831Z,19.57
2017-04-04T01:02:48.027Z,23.72
2017-04-04T01:03:46.623Z,24.15
2017-04-04T01:04:45.647Z,22.68
2017-04-04T01:05:44.407Z,23.35
2017-04-04T01:06:42.960Z,23.07
2017-04-04T01:07:41.879Z,22.72
2017-04-04T01:08:41.045Z,23.62
2017-04-04T01:09:39.968Z,25.42
2017-04-04T01:10:38.771Z,25.15
2017-04-04T01:11:37.715Z,26.00
2017-04-04T01:12:36.701Z,28.88
2017-04-04T01:13:35.656Z,25.25
2017-04-04T01:14:34.520Z,25.52
2017-04-04T01:15:33.060Z,25.32
2017-04-04T01:16:31.484Z,23.43
2017-04-04T01:17:29.949Z,21.98
2017-04-04T01:18:28.514Z,25.82
2017-04-04T01:19:27.095Z,25.93
2017-04-04T01:20:25.961Z,23.53
2017-04-04T01:21:24.899Z,23.53
2017-04-04T01:22:23.820Z,24.72
2017-04-04T01:23:22.762Z,25.73
2017-04-04T01:24:21.775Z,27.18
2017-04-04T01:25:20.744Z,23.95
2017-04-04T01:26:20.057Z,26.95
2017-04-04T01:27:18.956Z,26.62
2017-04-04T01:28:17.789Z,24.17
2017-04-04T01:29:16.669Z,23.28
2017-04-04T01:30:15.195Z,27.17
2017-04-04T01:31:14.164Z,25.33
2017-04-04T01:32:13.403Z,24.23
2017-04-04T01:33:12.344Z,23.80
2017-04-04T01:34:10.878Z,28.07
2017-04-04T01:35:09.798Z,23.30
2017-04-04T01:36:08.739Z,27.40
2017-04-04T01:37:07.619Z,25.08
2017-04-04T01:38:06.923Z,27.05
2017-04-04T01:39:05.899Z,28.23
2017-04-04T01:40:04.324Z,27.12
2017-04-04T01:41:03.319Z,23.00
2017-04-04T01:42:01.908Z,25.67
2017-04-04T01:43:00.832Z,24.53
2017-04-04T01:44:00.213Z,25.18
2017-04-04T01:44:59.229Z,30.18
2017-04-04T01:45:58.483Z,24.98
2017-04-04T01:46:57.311Z,29.02
2017-04-04T01:47:56.213Z,30.72
2017-04-04T01:48:55.199Z,27.18
2017-04-04T01:49:54.410Z,26.02
2017-04-04T01:50:53.344Z,29.07
2017-04-04T01:51:52.455Z,28.02
2017-04-04T01:52:51.406Z,29.72
2017-04-04T01:53:50.346Z,32.27
2017-04-04T01:54:49.291Z,29.33
2017-04-04T01:55:48.115Z,28.53
2017-04-04T01:56:47.079Z,31.57
2017-04-04T01:57:46.014Z,29.78
2017-04-04T01:58:44.575Z,31.57
2017-04-04T01:59:43.519Z,28.40
2017-04-04T02:00:42.435Z,29.25
2017-04-04T02:01:41.686Z,27.05
2017-04-04T02:02:40.723Z,27.53
2017-04-04T02:03:39.570Z,28.95
2017-04-04T02:04:38.860Z,30.13
2017-04-04T02:05:37.398Z,27.43
2017-04-04T02:06:35.955Z,31.03
2017-04-04T02:07:35.171Z,30.25
2017-04-04T02:08:34.065Z,26.10
2017-04-04T02:09:32.534Z,28.78
2017-04-04T02:10:31.422Z,26.93
2017-04-04T02:11:30.354Z,32.25
2017-04-04T02:12:29.335Z,29.17
2017-04-04T02:13:28.532Z,28.22
2017-04-04T02:14:27.028Z,28.07
2017-04-04T02:15:25.934Z,26.98
2017-04-04T02:16:24.885Z,28.32
2017-04-04T02:17:23.781Z,32.25
2017-04-04T02:18:22.791Z,25.07
2017-04-04T02:19:21.944Z,26.33
2017-04-04T02:20:20.906Z,26.95
2017-04-04T02:21:19.395Z,28.22
2017-04-04T02:22:17.961Z,29.88
2017-04-04T02:23:16.912Z,28.58
2017-04-04T02:24:15.430Z,29.05
2017-04-04T02:25:14.715Z,30.37
2017-04-04T02:26:13.577Z,28.40
2017-04-04T02:27:12.006Z,29.15
2017-04-04T02:28:10.943Z,27.20
2017-04-04T02:29:09.485Z,26.22
2017-04-04T02:30:08.472Z,27.63
2017-04-04T02:31:07.336Z,29.45
2017-04-04T02:32:06.203Z,28.90
2017-04-04T02:33:05.096Z,31.73
2017-04-04T02:34:03.939Z,26.47
2017-04-04T02:35:02.896Z,26.93
2017-04-04T02:36:01.469Z,30.25
2017-04-04T02:37:00.713Z,26.97
2017-04-04T02:37:59.610Z,34.45
2017-04-04T02:38:58.521Z,29.07
2017-04-04T02:39:57.351Z,27.95
2017-04-04T02:40:56.682Z,34.27
2017-04-04T02:41:55.688Z,34.55
2017-04-04T02:42:54.961Z,27.22
2017-04-04T02:43:53.811Z,28.57
2017-04-04T02:44:52.655Z,29.62
2017-04-04T02:45:51.663Z,30.38
2017-04-04T02:46:50.563Z,28.45
2017-04-04T02:47:49.543Z,28.83
2017-04-04T02:48:49.385Z,29.73
2017-04-04T02:49:48.371Z,29.37
2017-04-04T02:50:47.252Z,29.18
2017-04-04T02:51:46.124Z,30.18
2017-04-04T02:52:45.093Z,29.42
2017-04-04T02:53:43.994Z,32.13
2017-04-04T02:54:43.286Z,26.45
2017-04-04T02:55:42.282Z,27.05
2017-04-04T02:56:41.157Z,28.80
2017-04-04T02:57:39.692Z,31.48
2017-04-04T02:58:38.679Z,29.03
2017-04-04T02:59:37.640Z,29.42
2017-04-04T03:00:36.523Z,30.27
2017-04-04T03:01:34.996Z,28.45
2017-04-04T03:02:33.856Z,28.05
2017-04-04T03:03:32.423Z,30.03
2017-04-04T03:04:30.996Z,31.80
2017-04-04T03:05:30.291Z,27.93
2017-04-04T03:06:31.993Z,29.43
2017-04-04T03:07:31.051Z,31.87
2017-04-04T03:08:29.996Z,30.53
2017-04-04T03:09:28.900Z,29.80
2017-04-04T03:10:27.844Z,33.32
2017-04-04T03:11:26.534Z,30.73
2017-04-04T03:12:25.766Z,29.38
2017-04-04T03:13:24.358Z,30.85
2017-04-04T03:14:23.169Z,34.78
2017-04-04T03:15:22.044Z,30.05
2017-04-04T03:16:20.972Z,32.27
2017-04-04T03:17:20.320Z,31.03
2017-04-04T03:18:19.491Z,25.82
2017-04-04T03:19:17.973Z,37.17
2017-04-04T03:20:16.444Z,31.98
2017-04-04T03:21:15.363Z,34.95
2017-04-04T03:22:13.891Z,35.85
2017-04-04T03:23:12.885Z,32.30
2017-04-04T03:24:12.140Z,33.08
2017-04-04T03:25:11.004Z,36.25
2017-04-04T03:26:09.851Z,30.47
2017-04-04T03:27:08.683Z,36.25
2017-04-04T03:28:07.708Z,34.48
2017-04-04T03:29:06.616Z,33.10
2017-04-04T03:30:06.031Z,32.38
2017-04-04T03:31:04.574Z,33.53
2017-04-04T03:32:03.459Z,31.50
2017-04-04T03:33:02.235Z,32.63
2017-04-04T03:34:01.147Z,34.80
2017-04-04T03:35:00.075Z,31.43
2017-04-04T03:35:58.879Z,35.65
2017-04-04T03:36:57.381Z,31.42
2017-04-04T03:37:56.200Z,34.52
2017-04-04T03:38:55.077Z,32.40
2017-04-04T03:39:54.415Z,34.57
2017-04-04T03:40:53.287Z,35.35
2017-04-04T03:41:52.603Z,32.42
2017-04-04T03:42:51.162Z,33.52
2017-04-04T03:43:49.577Z,34.75
2017-04-04T03:44:48.457Z,33.12
2017-04-04T03:45:47.333Z,30.95
2017-04-04T03:46:46.655Z,29.33
2017-04-04T03:47:45.880Z,28.65
2017-04-04T03:48:44.443Z,31.22
2017-04-04T03:49:42.888Z,35.72
2017-04-04T03:50:41.788Z,33.10
2017-04-04T03:51:41.259Z,32.87
2017-04-04T03:52:40.192Z,31.38
2017-04-04T03:53:39.399Z,29.95
2017-04-04T03:54:38.332Z,31.38
2017-04-04T03:55:37.257Z,32.32
2017-04-04T03:56:36.151Z,29.43
2017-04-04T03:57:35.121Z,34.18
2017-04-04T03:58:34.060Z,31.48
2017-04-04T03:59:33.373Z,31.92
2017-04-04T04:00:32.307Z,32.47
2017-04-04T04:01:30.740Z,32.13
2017-04-04T04:02:30.723Z,29.95
2017-04-04T04:03:29.619Z,31.70
2017-04-04T04:04:28.601Z,32.48
2017-04-04T04:05:27.521Z,30.55
2017-04-04T04:06:26.244Z,34.30
2017-04-04T04:07:24.679Z,36.25
2017-04-04T04:08:23.203Z,28.08
2017-04-04T04:09:22.124Z,31.85
2017-04-04T04:10:20.662Z,34.02
2017-04-04T04:11:19.925Z,32.90
2017-04-04T04:12:18.435Z,33.62
2017-04-04T04:13:17.254Z,30.05
2017-04-04T04:14:16.213Z,34.07
2017-04-04T04:15:15.229Z,32.68
2017-04-04T04:16:14.171Z,31.45
2017-04-04T04:17:13.524Z,28.88
2017-04-04T04:18:12.448Z,36.33
2017-04-04T04:19:10.920Z,31.73
2017-04-04T04:20:09.462Z,33.68
2017-04-04T04:21:08.367Z,31.78
2017-04-04T04:22:07.463Z,32.25
2017-04-04T04:23:06.295Z,34.63
2017-04-04T04:24:05.696Z,35.48
2017-04-04T04:25:04.610Z,32.80
2017-04-04T04:26:03.536Z,31.67
2017-04-04T04:27:02.149Z,30.38
2017-04-04T04:28:01.468Z,35.17
2017-04-04T04:29:01.002Z,29.98
2017-04-04T04:29:59.917Z,38.02
2017-04-04T04:30:58.813Z,36.97
2017-04-04T04:31:57.339Z,38.20
2017-04-04T04:32:56.324Z,39.42
2017-04-04T04:33:55.472Z,37.18
2017-04-04T04:34:54.900Z,39.78
2017-04-04T04:35:53.841Z,39.30
2017-04-04T04:36:52.713Z,34.77
2017-04-04T04:37:51.172Z,41.10
2017-04-04T04:38:50.116Z,35.93
2017-04-04T04:39:49.059Z,35.62
2017-04-04T04:40:48.300Z,37.93
2017-04-04T04:41:47.132Z,39.77
2017-04-04T04:42:45.985Z,35.68
2017-04-04T04:43:45.213Z,36.23
2017-04-04T04:44:44.148Z,37.83
2017-04-04T04:45:42.727Z,38.03
2017-04-04T04:46:41.764Z,35.27
2017-04-04T04:47:40.717Z,32.13
2017-04-04T04:48:39.512Z,36.87
2017-04-04T04:49:38.356Z,34.28
2017-04-04T04:50:37.284Z,33.43
2017-04-04T04:51:36.233Z,34.57
2017-04-04T04:52:35.412Z,37.93
2017-04-04T04:53:34.156Z,38.97
2017-04-04T04:54:33.119Z,35.58
2017-04-04T04:55:32.039Z,37.12
2017-04-04T04:56:30.451Z,32.33
2017-04-04T04:57:29.410Z,36.08
2017-04-04T04:58:28.948Z,29.97
2017-04-04T04:59:27.935Z,32.57
2017-04-04T05:00:26.912Z,31.93
2017-04-04T05:01:25.867Z,39.18
2017-04-04T05:02:24.790Z,34.68
2017-04-04T05:03:23.341Z,36.45
2017-04-04T05:04:22.746Z,31.62
2017-04-04T05:05:21.745Z,33.35
2017-04-04T05:06:20.652Z,38.83
2017-04-04T05:07:19.546Z,38.08
2017-04-04T05:08:18.063Z,32.53
2017-04-04T05:09:16.606Z,39.15
2017-04-04T05:10:16.051Z,36.63
2017-04-04T05:11:15.174Z,35.65
2017-04-04T05:12:14.056Z,40.68
2017-04-04T05:13:12.922Z,38.92
2017-04-04T05:14:11.827Z,35.32
2017-04-04T05:15:10.423Z,35.62
2017-04-04T05:16:09.608Z,34.08
2017-04-04T05:17:08.528Z,32.20
2017-04-04T05:18:07.439Z,37.00
2017-04-04T05:19:06.366Z,32.85
2017-04-04T05:20:05.366Z,35.67
2017-04-04T05:21:05.006Z,34.88
2017-04-04T05:22:03.870Z,32.27
2017-04-04T05:23:02.752Z,36.35
2017-04-04T05:24:01.596Z,37.03
2017-04-04T05:25:00.396Z,33.10
2017-04-04T05:25:59.329Z,30.23
2017-04-04T05:26:58.316Z,32.40
2017-04-04T05:27:57.562Z,35.63
2017-04-04T05:28:56.492Z,34.25
2017-04-04T05:29:55.825Z,33.68
2017-04-04T05:30:54.738Z,35.12
2017-04-04T05:31:53.287Z,33.68
2017-04-04T05:32:52.244Z,36.15
2017-04-04T05:33:51.096Z,32.28
2017-04-04T05:34:50.095Z,39.37
2017-04-04T05:35:48.984Z,37.78
2017-04-04T05:36:47.875Z,34.37
2017-04-04T05:37:46.874Z,35.48
2017-04-04T05:38:45.523Z,34.47
2017-04-04T05:39:44.745Z,33.75
2017-04-04T05:40:43.721Z,39.82
2017-04-04T05:41:42.664Z,32.38
2017-04-04T05:42:41.968Z,36.88
2017-04-04T05:43:40.564Z,35.40
2017-04-04T05:44:39.134Z,37.15
2017-04-04T05:45:38.584Z,34.12
2017-04-04T05:46:37.574Z,33.20
2017-04-04T05:47:36.949Z,39.10
2017-04-04T05:48:35.741Z,34.38
2017-04-04T05:49:34.669Z,40.10
2017-04-04T05:50:33.281Z,33.90
2017-04-04T05:51:32.779Z,34.83
2017-04-04T05:52:31.335Z,33.93
2017-04-04T05:53:30.448Z,35.45
2017-04-04T05:54:29.746Z,35.53
2017-04-04T05:55:29.116Z,37.98
2017-04-04T05:56:28.184Z,36.00
2017-04-04T05:57:27.464Z,34.62
2017-04-04T05:58:26.390Z,39.02
2017-04-04T05:59:30.522Z,33.35
2017-04-04T06:00:29.878Z,37.02
2017-04-04T06:01:31.681Z,34.12
2017-04-04T06:02:33.485Z,37.50
2017-04-04T06:03:33.067Z,40.08
2017-04-04T06:04:32.066Z,33.02
2017-04-04T06:05:30.928Z,35.38
2017-04-04T06:06:29.484Z,35.45
2017-04-04T06:07:28.043Z,38.67
2017-04-04T06:08:27.946Z,32.93
2017-04-04T06:09:26.956Z,38.35
2017-04-04T06:10:25.994Z,39.22
2017-04-04T06:11:28.872Z,38.27
2017-04-04T06:12:27.883Z,36.57
2017-04-04T06:13:28.815Z,39.63
2017-04-04T06:14:27.404Z,38.23
2017-04-04T06:15:26.374Z,38.62
2017-04-04T06:16:24.899Z,38.30
2017-04-04T06:17:23.639Z,35.48
2017-04-04T06:18:26.022Z,33.38
2017-04-04T06:19:26.420Z,36.27
2017-04-04T06:20:25.454Z,41.37
2017-04-04T06:21:23.974Z,34.77
2017-04-04T06:22:22.537Z,38.28
2017-04-04T06:23:21.179Z,39.12
2017-04-04T06:24:19.816Z,39.62
2017-04-04T06:25:18.777Z,37.63
2017-04-04T06:26:18.275Z,36.32
2017-04-04T06:27:20.260Z,40.92
2017-04-04T06:28:19.890Z,40.15
2017-04-04T06:29:19.107Z,38.58
2017-04-04T06:30:18.305Z,37.45
2017-04-04T06:31:17.663Z,37.37
2017-04-04T06:32:16.729Z,38.78
2017-04-04T06:33:15.259Z,43.65
2017-04-04T06:34:13.844Z,35.18
2017-04-04T06:35:16.445Z,38.95
2017-04-04T06:36:15.603Z,36.42
2017-04-04T06:37:14.811Z,38.32
2017-04-04T06:38:14.380Z,35.30
2017-04-04T06:39:13.890Z,47.05
2017-04-04T06:40:13.175Z,34.62
2017-04-04T06:41:12.681Z,40.20
2017-04-04T06:42:12.090Z,38.35
2017-04-04T06:43:11.460Z,41.73
2017-04-04T06:44:10.362Z,37.67
2017-04-04T06:45:09.622Z,35.68
2017-04-04T06:46:09.048Z,37.73
2017-04-04T06:47:08.407Z,42.97
2017-04-04T06:48:08.263Z,37.68
2017-04-04T06:49:08.944Z,39.77
2017-04-04T06:50:08.323Z,39.27
2017-04-04T06:51:07.336Z,32.97
2017-04-04T06:52:07.015Z,39.15
2017-04-04T06:53:07.320Z,40.30
2017-04-04T06:54:07.032Z,50.72
2017-04-04T06:55:06.946Z,37.55
2017-04-04T06:56:07.078Z,39.62
2017-04-04T06:57:06.270Z,36.65
2017-04-04T06:58:05.664Z,34.00
2017-04-04T06:59:06.402Z,39.00
2017-04-04T07:00:06.015Z,38.35
2017-04-04T07:01:05.987Z,38.63
2017-04-04T07:02:05.260Z,38.72
2017-04-04T07:03:08.416Z,36.83
2017-04-04T07:04:08.038Z,42.52
2017-04-04T07:05:07.212Z,35.40
2017-04-04T07:06:07.386Z,39.30
2017-04-04T07:07:08.010Z,38.38
2017-04-04T07:08:07.499Z,39.70
2017-04-04T07:09:10.484Z,37.28
2017-04-04T07:10:09.650Z,37.05
2017-04-04T07:11:09.031Z,41.32
2017-04-04T07:12:09.330Z,35.48
2017-04-04T07:13:09.371Z,42.93
2017-04-04T07:14:13.707Z,36.42
2017-04-04T07:15:14.434Z,36.65
2017-04-04T07:16:16.313Z,33.13
2017-04-04T07:17:16.937Z,41.63
2017-04-04T07:18:29.894Z,37.10
2017-04-04T07:20:48.280Z,35.83
2017-04-04T07:21:47.873Z,41.03
2017-04-04T07:22:47.413Z,39.77
2017-04-04T07:23:58.011Z,35.33
2017-04-04T07:24:57.752Z,35.32
2017-04-04T07:25:57.707Z,39.37
2017-04-04T07:26:56.625Z,37.18
2017-04-04T07:27:56.812Z,37.88
2017-04-04T07:28:56.615Z,41.72
2017-04-04T07:29:55.504Z,43.92
2017-04-04T07:30:58.756Z,35.23
2017-04-04T07:31:58.452Z,40.27
2017-04-04T07:32:58.480Z,38.60
2017-04-04T07:33:58.628Z,41.40
2017-04-04T07:34:57.996Z,40.60
2017-04-04T07:35:57.437Z,33.62
2017-04-04T07:36:57.784Z,35.05
2017-04-04T07:37:57.036Z,38.78
2017-04-04T07:38:57.120Z,38.18
2017-04-04T07:39:56.209Z,38.72
2017-04-04T07:40:57.894Z,41.75
2017-04-04T07:41:58.116Z,36.60
2017-04-04T07:42:57.790Z,34.88
2017-04-04T07:43:57.505Z,38.37
2017-04-04T07:44:56.352Z,41.43
2017-04-04T07:45:55.531Z,38.85
2017-04-04T07:46:54.794Z,37.32
2017-04-04T07:47:57.426Z,39.00
2017-04-04T07:48:57.536Z,36.82
2017-04-04T07:49:56.943Z,41.32
2017-04-04T07:50:59.715Z,38.00
2017-04-04T07:52:00.836Z,34.52
2017-04-04T07:53:00.691Z,34.57
2017-04-04T07:54:00.079Z,40.50
2017-04-04T07:54:59.420Z,41.28
2017-04-04T07:56:00.323Z,42.80
2017-04-04T07:56:59.729Z,37.30
2017-04-04T07:57:59.006Z,40.23
2017-04-04T07:58:58.572Z,38.63
2017-04-04T07:59:58.825Z,42.00
2017-04-04T08:00:58.569Z,38.48
2017-04-04T08:01:58.053Z,40.95
2017-04-04T08:02:58.291Z,40.48
2017-04-04T08:03:57.408Z,40.02
2017-04-04T08:04:56.800Z,39.47
2017-04-04T08:05:55.971Z,39.22
2017-04-04T08:06:55.452Z,42.35
2017-04-04T08:07:55.519Z,36.62
2017-04-04T08:08:56.147Z,38.57
2017-04-04T08:09:54.911Z,36.68
2017-04-04T08:10:54.375Z,41.58
2017-04-04T08:11:53.085Z,41.72
2017-04-04T08:12:52.451Z,39.75
2017-04-04T08:13:52.189Z,42.47
2017-04-04T08:14:51.918Z,39.00
2017-04-04T08:15:50.856Z,39.37
2017-04-04T08:16:50.722Z,38.58
2017-04-04T08:17:50.080Z,41.10
2017-04-04T08:18:48.637Z,42.63
2017-04-04T08:19:48.109Z,38.98
2017-04-04T08:20:47.395Z,42.58
2017-04-04T08:21:46.928Z,41.42
2017-04-04T08:22:45.903Z,40.03
2017-04-04T08:23:51.228Z,39.30
2017-04-04T08:24:52.390Z,37.52
2017-04-04T08:25:51.415Z,39.15
2017-04-04T08:26:50.343Z,40.65
2017-04-04T08:28:15.093Z,39.68
2017-04-04T08:29:14.532Z,38.85
2017-04-04T08:30:14.180Z,41.57
2017-04-04T08:31:13.699Z,40.68
2017-04-04T08:32:19.321Z,44.20
2017-04-04T08:33:24.209Z,43.15
2017-04-04T08:34:23.822Z,39.00
2017-04-04T08:35:25.596Z,41.65
2017-04-04T08:36:26.587Z,39.30
2017-04-04T08:37:26.490Z,40.12
2017-04-04T08:38:25.320Z,39.27
2017-04-04T08:39:25.016Z,39.18
2017-04-04T08:40:24.497Z,41.33
2017-04-04T08:41:23.225Z,38.42
2017-04-04T08:42:22.799Z,41.23
2017-04-04T08:43:22.334Z,38.65
2017-04-04T08:44:21.961Z,37.72
2017-04-04T08:45:21.267Z,42.58
2017-04-04T08:46:30.839Z,40.17
2017-04-04T08:47:30.515Z,42.07
2017-04-04T08:48:30.136Z,42.08
2017-04-04T08:49:29.454Z,45.13
2017-04-04T08:50:28.738Z,41.18
2017-04-04T08:51:28.416Z,42.12
2017-04-04T08:52:27.612Z,40.52
2017-04-04T08:53:27.315Z,37.08
2017-04-04T08:54:26.342Z,42.75
2017-04-04T08:55:25.460Z,39.47
2017-04-04T08:56:24.235Z,42.52
2017-04-04T08:57:22.994Z,40.47
2017-04-04T08:58:22.228Z,40.53
2017-04-04T08:59:21.873Z,38.27
2017-04-04T09:00:21.159Z,42.60
2017-04-04T09:01:20.387Z,39.87
2017-04-04T09:02:20.159Z,40.53
2017-04-04T09:03:19.694Z,39.02
2017-04-04T09:04:18.848Z,47.27
2017-04-04T09:05:18.563Z,43.47
2017-04-04T09:06:19.702Z,46.60
2017-04-04T09:07:19.579Z,42.83
2017-04-04T09:08:18.762Z,37.53
2017-04-04T09:09:19.070Z,42.42
2017-04-04T09:10:19.213Z,46.03
2017-04-04T09:11:18.620Z,44.67
2017-04-04T09:12:17.572Z,41.77
2017-04-04T09:13:16.966Z,42.25
2017-04-04T09:14:16.537Z,40.53
2017-04-04T09:15:16.502Z,38.97
2017-04-04T09:16:15.986Z,41.18
2017-04-04T09:17:14.782Z,39.82
2017-04-04T09:18:13.919Z,40.40
2017-04-04T09:19:13.072Z,39.10
2017-04-04T09:20:11.829Z,39.47
2017-04-04T09:21:10.741Z,45.13
2017-04-04T09:22:10.999Z,41.35
2017-04-04T09:23:09.796Z,39.42
2017-04-04T09:24:10.411Z,38.73
2017-04-04T09:25:09.361Z,40.67
2017-04-04T09:26:08.558Z,40.68
2017-04-04T09:27:07.727Z,42.62
2017-04-04T09:28:09.903Z,43.00
2017-04-04T09:29:09.649Z,41.82
2017-04-04T09:30:09.022Z,39.97
2017-04-04T09:31:08.201Z,36.82
2017-04-04T09:32:07.613Z,38.92
2017-04-04T09:33:10.519Z,40.13
2017-04-04T09:34:10.347Z,39.05
2017-04-04T09:35:09.501Z,38.73
2017-04-04T09:36:08.743Z,38.35
2017-04-04T09:37:07.877Z,40.42
2017-04-04T09:38:07.591Z,37.97
2017-04-04T09:39:07.172Z,39.15
2017-04-04T09:40:05.880Z,41.65
2017-04-04T09:41:05.174Z,38.83
2017-04-04T09:42:04.334Z,38.80
2017-04-04T09:43:03.477Z,37.32
2017-04-04T09:44:02.173Z,39.43
2017-04-04T09:45:01.896Z,42.03
2017-04-04T09:46:01.036Z,35.32
2017-04-04T09:47:00.148Z,35.13
2017-04-04T09:47:59.749Z,32.83
2017-04-04T09:48:58.999Z,39.32
2017-04-04T09:49:58.424Z,35.22
2017-04-04T09:50:58.213Z,39.95
2017-04-04T09:51:57.647Z,39.07
2017-04-04T09:52:56.936Z,43.13
2017-04-04T09:53:56.205Z,36.63
2017-04-04T09:54:57.369Z,38.97
2017-04-04T09:55:56.911Z,38.30
2017-04-04T09:56:56.594Z,38.65
2017-04-04T09:57:55.338Z,36.30
2017-04-04T09:58:56.005Z,37.80
2017-04-04T09:59:55.016Z,39.68
2017-04-04T10:00:54.755Z,40.15
2017-04-04T10:01:54.121Z,37.20
2017-04-04T10:02:53.503Z,37.45
2017-04-04T10:03:52.651Z,37.47
2017-04-04T10:04:52.159Z,40.35
2017-04-04T10:05:51.692Z,38.45
2017-04-04T10:06:50.747Z,39.48
2017-04-04T10:07:50.070Z,33.83
2017-04-04T10:08:49.863Z,40.12
2017-04-04T10:09:49.300Z,40.75
2017-04-04T10:10:47.969Z,43.83
2017-04-04T10:11:47.110Z,39.28
2017-04-04T10:12:46.563Z,39.27
2017-04-04T10:13:45.608Z,39.87
2017-04-04T10:14:45.297Z,37.62
2017-04-04T10:15:44.118Z,43.12
2017-04-04T10:16:43.198Z,39.73
2017-04-04T10:17:43.283Z,38.07
2017-04-04T10:18:42.735Z,38.33
2017-04-04T10:19:42.071Z,37.83
2017-04-04T10:20:41.560Z,36.32
2017-04-04T10:21:40.881Z,37.67
2017-04-04T10:22:40.517Z,37.40
2017-04-04T10:23:39.977Z,37.67
2017-04-04T10:24:39.059Z,33.25
2017-04-04T10:25:38.091Z,34.28
2017-04-04T10:26:37.101Z,35.95
2017-04-04T10:27:35.882Z,36.98
2017-04-04T10:28:35.229Z,35.45
2017-04-04T10:29:34.157Z,36.30
2017-04-04T10:30:32.857Z,39.13
2017-04-04T10:31:31.811Z,36.87
2017-04-04T10:32:31.626Z,37.87
2017-04-04T10:33:30.710Z,36.08
2017-04-04T10:34:29.830Z,39.67
2017-04-04T10:35:29.369Z,31.97
2017-04-04T10:36:28.456Z,32.20
2017-04-04T10:37:27.810Z,32.72
2017-04-04T10:38:27.706Z,42.10
2017-04-04T10:39:27.110Z,31.90
2017-04-04T10:40:27.111Z,30.38
2017-04-04T10:41:26.558Z,32.25
2017-04-04T10:42:26.104Z,30.33
2017-04-04T10:43:25.160Z,34.82
2017-04-04T10:44:24.634Z,35.32
2017-04-04T10:45:23.902Z,31.42
2017-04-04T10:46:23.501Z,30.03
2017-04-04T10:47:22.390Z,30.62
2017-04-04T10:48:21.541Z,31.02
2017-04-04T10:49:20.696Z,34.05
2017-04-04T10:50:20.113Z,34.78
2017-04-04T10:51:19.450Z,30.00
2017-04-04T10:52:18.609Z,33.30
2017-04-04T10:53:17.639Z,33.58
2017-04-04T10:54:16.870Z,30.60
2017-04-04T10:55:16.321Z,32.25
2017-04-04T10:56:15.835Z,32.13
2017-04-04T10:57:15.017Z,28.68
2017-04-04T10:58:14.220Z,31.67
2017-04-04T10:59:13.566Z,29.38
2017-04-04T11:00:14.147Z,33.70
2017-04-04T11:01:13.493Z,33.97
2017-04-04T11:02:13.180Z,27.92
2017-04-04T11:03:11.832Z,29.28
2017-04-04T11:04:10.908Z,32.60
2017-04-04T11:05:09.802Z,28.85
2017-04-04T11:06:08.886Z,28.38
2017-04-04T11:07:07.613Z,27.33
2017-04-04T11:08:06.580Z,30.38
2017-04-04T11:09:05.555Z,24.23
2017-04-04T11:10:04.705Z,27.03
2017-04-04T11:11:04.569Z,30.82
2017-04-04T11:12:03.652Z,25.13
2017-04-04T11:13:02.778Z,27.30
2017-04-04T11:14:02.665Z,29.78
2017-04-04T11:15:01.973Z,30.17
2017-04-04T11:16:01.566Z,26.92
2017-04-04T11:17:00.576Z,25.03
2017-04-04T11:17:59.630Z,24.78
2017-04-04T11:18:58.846Z,23.50
2017-04-04T11:19:58.734Z,25.72
2017-04-04T11:20:57.993Z,28.05
2017-04-04T11:21:57.019Z,29.60
2017-04-04T11:22:56.406Z,29.40
2017-04-04T11:23:55.744Z,29.02
2017-04-04T11:24:55.461Z,30.42
2017-04-04T11:25:54.997Z,32.38
2017-04-04T11:26:54.085Z,26.77
2017-04-04T11:27:53.197Z,27.83
2017-04-04T11:28:52.292Z,25.92
2017-04-04T11:29:52.026Z,26.60
2017-04-04T11:30:51.489Z,25.65
2017-04-04T11:31:50.957Z,26.68
2017-04-04T11:32:50.101Z,26.45
2017-04-04T11:33:48.821Z,26.42
2017-04-04T11:34:47.508Z,28.45
2017-04-04T11:35:46.232Z,28.32
2017-04-04T11:37:48.710Z,22.80
2017-04-04T11:38:48.498Z,25.55
2017-04-04T11:39:47.697Z,24.35
2017-04-04T11:40:46.805Z,28.73
2017-04-04T11:41:46.641Z,24.02
2017-04-04T11:42:45.393Z,24.92
2017-04-04T11:43:44.779Z,26.00
2017-04-04T11:44:43.804Z,25.77
2017-04-04T11:45:42.869Z,24.85
2017-04-04T11:46:42.402Z,24.10
2017-04-04T11:47:41.150Z,23.77
2017-04-04T11:48:40.449Z,27.18
2017-04-04T11:49:39.880Z,26.02
2017-04-04T11:50:39.860Z,25.35
2017-04-04T11:51:39.230Z,23.95
2017-04-04T11:52:38.332Z,24.62
2017-04-04T11:53:38.033Z,24.63
2017-04-04T11:54:37.096Z,25.43
2017-04-04T11:55:36.936Z,20.68
2017-04-04T11:56:36.050Z,27.42
2017-04-04T11:57:35.118Z,24.37
2017-04-04T11:58:35.003Z,25.13
2017-04-04T11:59:34.055Z,30.13
2017-04-04T12:00:33.555Z,26.73
2017-04-04T12:01:32.720Z,27.55
2017-04-04T12:02:31.233Z,23.67
2017-04-04T12:03:30.537Z,21.32
2017-04-04T12:04:29.190Z,22.68
2017-04-04T12:05:28.184Z,20.48
2017-04-04T12:06:27.514Z,28.00
2017-04-04T12:07:27.122Z,24.63
2017-04-04T12:08:26.222Z,29.12
2017-04-04T12:09:25.137Z,23.12
2017-04-04T12:10:25.148Z,25.73
2017-04-04T12:11:24.198Z,21.65
2017-04-04T12:12:23.265Z,21.37
2017-04-04T12:13:22.555Z,23.40
2017-04-04T12:14:21.607Z,24.17
2017-04-04T12:15:20.796Z,23.45
2017-04-04T12:16:20.416Z,22.52
2017-04-04T12:17:20.104Z,25.05
2017-04-04T12:18:19.027Z,24.70
2017-04-04T12:19:18.348Z,24.57
2017-04-04T12:20:17.324Z,25.15
2017-04-04T12:21:16.569Z,23.62
2017-04-04T12:22:15.621Z,26.97
2017-04-04T12:23:14.677Z,24.18
2017-04-04T12:24:13.292Z,26.77
2017-04-04T12:25:13.078Z,24.40
2017-04-04T12:26:12.485Z,22.62
2017-04-04T12:27:11.505Z,22.28
2017-04-04T12:28:10.098Z,24.70
2017-04-04T12:29:09.139Z,24.82
2017-04-04T12:30:08.176Z,25.27
2017-04-04T12:31:07.277Z,23.05
2017-04-04T12:32:06.335Z,24.73
2017-04-04T12:33:05.317Z,23.08
2017-04-04T12:34:04.386Z,25.70
2017-04-04T12:35:03.312Z,27.77
2017-04-04T12:36:02.624Z,23.50
2017-04-04T12:37:01.495Z,24.23
2017-04-04T12:38:00.519Z,27.28
2017-04-04T12:39:00.149Z,22.28
2017-04-04T12:39:59.320Z,25.97
2017-04-04T12:40:58.512Z,25.65
2017-04-04T12:41:57.538Z,21.67
2017-04-04T12:42:56.750Z,25.90
2017-04-04T12:43:55.716Z,24.77
2017-04-04T12:44:54.660Z,22.73
2017-04-04T12:45:53.623Z,23.17
2017-04-04T12:46:52.941Z,18.90
2017-04-04T12:47:51.729Z,21.57
2017-04-04T12:49:58.996Z,21.08
2017-04-04T12:50:57.668Z,21.90
2017-04-04T12:51:56.722Z,22.40
2017-04-04T12:52:55.970Z,24.42
2017-04-04T12:53:54.838Z,23.67
2017-04-04T12:54:53.885Z,25.50
2017-04-04T12:55:53.098Z,21.35
2017-04-04T12:56:52.066Z,23.67
2017-04-04T12:57:50.628Z,24.92
2017-04-04T12:58:49.650Z,24.98
2017-04-04T12:59:49.144Z,22.97
2017-04-04T13:00:48.183Z,20.25
2017-04-04T13:01:47.293Z,22.72
2017-04-04T13:02:46.273Z,20.42
2017-04-04T13:03:45.253Z,23.42
2017-04-04T13:04:43.764Z,20.83
2017-04-04T13:05:42.612Z,20.73
2017-04-04T13:06:41.961Z,20.67
2017-04-04T13:07:40.934Z,24.62
2017-04-04T13:08:39.972Z,19.80
2017-04-04T13:09:38.925Z,20.12
2017-04-04T13:10:37.901Z,22.03
2017-04-04T13:11:37.240Z,21.50
2017-04-04T13:12:36.176Z,23.00
2017-04-04T13:13:35.198Z,21.02
2017-04-04T13:14:34.418Z,21.75
2017-04-04T13:15:33.851Z,22.80
2017-04-04T13:16:32.862Z,20.28
2017-04-04T13:17:32.396Z,20.53
2017-04-04T13:18:31.344Z,22.02
2017-04-04T13:19:30.403Z,21.95
2017-04-04T13:20:29.401Z,21.10
2017-04-04T13:21:28.348Z,26.62
2017-04-04T13:22:27.653Z,24.85
2017-04-04T13:23:27.183Z,19.87
2017-04-04T13:24:26.115Z,18.70
2017-04-04T13:25:24.941Z,19.83
2017-04-04T13:26:23.944Z,21.63
2017-04-04T13:27:22.588Z,18.53
2017-04-04T13:28:21.538Z,21.83
2017-04-04T13:29:21.076Z,20.27
2017-04-04T13:30:20.172Z,22.37
2017-04-04T13:31:19.192Z,20.97
2017-04-04T13:32:18.214Z,18.02
2017-04-04T13:33:17.220Z,21.20
2017-04-04T13:34:16.237Z,21.43
2017-04-04T13:35:15.188Z,22.07
2017-04-04T13:36:14.596Z,21.37
2017-04-04T13:37:13.089Z,22.55
2017-04-04T13:38:11.896Z,18.42
2017-04-04T13:39:10.500Z,19.38